sensor_id;sensor_type;location;lat;lon;timestamp;P1;durP1;ratioP1;P2;durP2;ratioP2
52786;SDS011;38661;53.152;5.846;2022-08-05T00:01:57;6.78;;;3.60;;
52786;SDS011;38661;53.152;5.846;2022-08-05T00:04:23;6.43;;;3.38;;
52786;SDS011;38661;53.152;5.846;2022-08-05T00:06:49;9.50;;;3.45;;
52786;SDS011;38661;53.152;5.846;2022-08-05T00:09:14;4.70;;;2.88;;
52786;SDS011;38661;53.152;5.846;2022-08-05T00:11:40;7.13;;;3.20;;
52786;SDS011;38661;53.152;5.846;2022-08-05T00:14:06;5.35;;;2.85;;
52786;SDS011;38661;53.152;5.846;2022-08-05T00:16:32;5.15;;;3.05;;
52786;SDS011;38661;53.152;5.846;2022-08-05T00:18:57;3.78;;;2.10;;
52786;SDS011;38661;53.152;5.846;2022-08-05T00:21:23;5.10;;;2.67;;
52786;SDS011;38661;53.152;5.846;2022-08-05T00:23:49;5.93;;;2.50;;
52786;SDS011;38661;53.152;5.846;2022-08-05T00:26:15;8.18;;;2.60;;
52786;SDS011;38661;53.152;5.846;2022-08-05T00:28:41;5.53;;;2.63;;
52786;SDS011;38661;53.152;5.846;2022-08-05T00:31:07;8.32;;;2.60;;
52786;SDS011;38661;53.152;5.846;2022-08-05T00:33:33;5.00;;;1.90;;
52786;SDS011;38661;53.152;5.846;2022-08-05T00:35:59;4.60;;;2.20;;
52786;SDS011;38661;53.152;5.846;2022-08-05T00:38:25;3.25;;;2.53;;
52786;SDS011;38661;53.152;5.846;2022-08-05T00:40:51;3.95;;;2.10;;
52786;SDS011;38661;53.152;5.846;2022-08-05T00:43:19;4.22;;;1.90;;
52786;SDS011;38661;53.152;5.846;2022-08-05T00:45:46;6.53;;;2.45;;
52786;SDS011;38661;53.152;5.846;2022-08-05T00:48:13;5.22;;;2.30;;
52786;SDS011;38661;53.152;5.846;2022-08-05T00:50:40;3.38;;;1.98;;
52786;SDS011;38661;53.152;5.846;2022-08-05T00:53:08;6.40;;;2.70;;
52786;SDS011;38661;53.152;5.846;2022-08-05T00:55:34;4.03;;;2.63;;
52786;SDS011;38661;53.152;5.846;2022-08-05T00:58:00;7.22;;;2.17;;
52786;SDS011;38661;53.152;5.846;2022-08-05T01:00:26;4.10;;;1.98;;
52786;SDS011;38661;53.152;5.846;2022-08-05T01:02:53;5.07;;;2.35;;
52786;SDS011;38661;53.152;5.846;2022-08-05T01:05:19;6.22;;;2.38;;
52786;SDS011;38661;53.152;5.846;2022-08-05T01:07:45;4.22;;;2.55;;
52786;SDS011;38661;53.152;5.846;2022-08-05T01:10:11;4.28;;;2.60;;
52786;SDS011;38661;53.152;5.846;2022-08-05T01:12:39;5.32;;;3.13;;
52786;SDS011;38661;53.152;5.846;2022-08-05T01:15:12;5.72;;;2.80;;
52786;SDS011;38661;53.152;5.846;2022-08-05T01:17:44;4.88;;;3.22;;
52786;SDS011;38661;53.152;5.846;2022-08-05T01:30:25;4.40;;;2.35;;
52786;SDS011;38661;53.152;5.846;2022-08-05T01:32:54;5.85;;;2.78;;
52786;SDS011;38661;53.152;5.846;2022-08-05T01:35:24;5.60;;;3.00;;
52786;SDS011;38661;53.152;5.846;2022-08-05T01:37:55;6.82;;;2.75;;
52786;SDS011;38661;53.152;5.846;2022-08-05T01:40:25;4.15;;;2.80;;
52786;SDS011;38661;53.152;5.846;2022-08-05T01:42:53;8.05;;;2.70;;
52786;SDS011;38661;53.152;5.846;2022-08-05T01:45:21;5.15;;;2.70;;
52786;SDS011;38661;53.152;5.846;2022-08-05T01:47:48;4.88;;;2.40;;
52786;SDS011;38661;53.152;5.846;2022-08-05T01:50:21;6.05;;;3.08;;
52786;SDS011;38661;53.152;5.846;2022-08-05T01:52:50;6.97;;;3.35;;
52786;SDS011;38661;53.152;5.846;2022-08-05T01:55:19;3.25;;;2.60;;
52786;SDS011;38661;53.152;5.846;2022-08-05T01:57:46;5.53;;;3.10;;
52786;SDS011;38661;53.152;5.846;2022-08-05T02:00:15;6.10;;;2.95;;
52786;SDS011;38661;53.152;5.846;2022-08-05T02:02:44;7.70;;;3.42;;
52786;SDS011;38661;53.152;5.846;2022-08-05T02:05:16;5.45;;;3.15;;
52786;SDS011;38661;53.152;5.846;2022-08-05T02:07:46;4.78;;;3.92;;
52786;SDS011;38661;53.152;5.846;2022-08-05T02:10:12;5.55;;;3.35;;
52786;SDS011;38661;53.152;5.846;2022-08-05T02:12:55;7.20;;;3.78;;
52786;SDS011;38661;53.152;5.846;2022-08-05T02:15:27;5.10;;;3.50;;
52786;SDS011;38661;53.152;5.846;2022-08-05T02:18:06;4.63;;;3.55;;
52786;SDS011;38661;53.152;5.846;2022-08-05T02:20:59;6.75;;;4.05;;
52786;SDS011;38661;53.152;5.846;2022-08-05T02:23:51;4.63;;;3.50;;
52786;SDS011;38661;53.152;5.846;2022-08-05T02:26:27;6.00;;;3.88;;
52786;SDS011;38661;53.152;5.846;2022-08-05T02:29:01;7.07;;;3.58;;
52786;SDS011;38661;53.152;5.846;2022-08-05T02:31:28;6.10;;;4.30;;
52786;SDS011;38661;53.152;5.846;2022-08-05T02:34:00;7.28;;;4.38;;
52786;SDS011;38661;53.152;5.846;2022-08-05T02:36:28;5.05;;;4.00;;
52786;SDS011;38661;53.152;5.846;2022-08-05T02:38:56;5.03;;;3.90;;
52786;SDS011;38661;53.152;5.846;2022-08-05T02:41:24;5.55;;;3.72;;
52786;SDS011;38661;53.152;5.846;2022-08-05T02:43:51;5.63;;;3.38;;
52786;SDS011;38661;53.152;5.846;2022-08-05T02:46:21;6.28;;;3.58;;
52786;SDS011;38661;53.152;5.846;2022-08-05T02:48:48;7.90;;;3.85;;
52786;SDS011;38661;53.152;5.846;2022-08-05T02:51:15;5.82;;;3.70;;
52786;SDS011;38661;53.152;5.846;2022-08-05T02:53:42;5.57;;;3.67;;
52786;SDS011;38661;53.152;5.846;2022-08-05T02:56:09;5.63;;;4.10;;
52786;SDS011;38661;53.152;5.846;2022-08-05T02:58:38;8.10;;;4.95;;
52786;SDS011;38661;53.152;5.846;2022-08-05T03:01:05;7.15;;;5.10;;
52786;SDS011;38661;53.152;5.846;2022-08-05T03:03:33;7.25;;;5.45;;
52786;SDS011;38661;53.152;5.846;2022-08-05T03:06:07;7.22;;;4.88;;
52786;SDS011;38661;53.152;5.846;2022-08-05T03:08:35;6.13;;;5.35;;
52786;SDS011;38661;53.152;5.846;2022-08-05T03:11:02;13.68;;;6.20;;
52786;SDS011;38661;53.152;5.846;2022-08-05T03:13:27;9.13;;;6.18;;
52786;SDS011;38661;53.152;5.846;2022-08-05T03:15:53;7.10;;;5.78;;
52786;SDS011;38661;53.152;5.846;2022-08-05T03:18:19;6.63;;;5.82;;
52786;SDS011;38661;53.152;5.846;2022-08-05T03:20:45;5.90;;;5.40;;
52786;SDS011;38661;53.152;5.846;2022-08-05T03:23:11;8.00;;;5.60;;
52786;SDS011;38661;53.152;5.846;2022-08-05T03:25:37;7.95;;;6.45;;
52786;SDS011;38661;53.152;5.846;2022-08-05T03:28:07;10.45;;;6.32;;
52786;SDS011;38661;53.152;5.846;2022-08-05T03:30:33;8.30;;;5.32;;
52786;SDS011;38661;53.152;5.846;2022-08-05T03:33:03;6.72;;;5.35;;
52786;SDS011;38661;53.152;5.846;2022-08-05T03:35:30;5.93;;;5.30;;
52786;SDS011;38661;53.152;5.846;2022-08-05T03:38:00;7.53;;;4.93;;
52786;SDS011;38661;53.152;5.846;2022-08-05T03:40:26;7.07;;;5.20;;
52786;SDS011;38661;53.152;5.846;2022-08-05T03:42:52;7.70;;;4.55;;
52786;SDS011;38661;53.152;5.846;2022-08-05T03:45:19;7.20;;;5.78;;
52786;SDS011;38661;53.152;5.846;2022-08-05T03:47:45;6.22;;;5.50;;
52786;SDS011;38661;53.152;5.846;2022-08-05T03:50:10;7.85;;;5.32;;
52786;SDS011;38661;53.152;5.846;2022-08-05T03:52:45;8.75;;;5.97;;
52786;SDS011;38661;53.152;5.846;2022-08-05T03:55:21;5.75;;;4.95;;
52786;SDS011;38661;53.152;5.846;2022-08-05T03:57:50;6.32;;;5.28;;
52786;SDS011;38661;53.152;5.846;2022-08-05T04:00:17;9.77;;;6.10;;
52786;SDS011;38661;53.152;5.846;2022-08-05T04:02:49;8.75;;;5.35;;
52786;SDS011;38661;53.152;5.846;2022-08-05T04:05:17;7.20;;;5.88;;
52786;SDS011;38661;53.152;5.846;2022-08-05T04:07:43;8.23;;;6.00;;
52786;SDS011;38661;53.152;5.846;2022-08-05T04:10:09;6.15;;;5.50;;
52786;SDS011;38661;53.152;5.846;2022-08-05T04:12:35;7.40;;;5.80;;
52786;SDS011;38661;53.152;5.846;2022-08-05T04:15:01;9.32;;;5.90;;
52786;SDS011;38661;53.152;5.846;2022-08-05T04:17:27;9.48;;;6.30;;
52786;SDS011;38661;53.152;5.846;2022-08-05T04:19:53;6.78;;;5.72;;
52786;SDS011;38661;53.152;5.846;2022-08-05T04:22:19;7.18;;;5.00;;
52786;SDS011;38661;53.152;5.846;2022-08-05T04:24:44;8.13;;;5.88;;
52786;SDS011;38661;53.152;5.846;2022-08-05T04:27:11;5.55;;;5.00;;
52786;SDS011;38661;53.152;5.846;2022-08-05T04:29:37;7.85;;;5.78;;
52786;SDS011;38661;53.152;5.846;2022-08-05T04:32:03;7.75;;;5.90;;
52786;SDS011;38661;53.152;5.846;2022-08-05T04:34:30;7.10;;;5.20;;
52786;SDS011;38661;53.152;5.846;2022-08-05T04:36:55;10.75;;;5.60;;
52786;SDS011;38661;53.152;5.846;2022-08-05T04:39:21;5.25;;;4.78;;
52786;SDS011;38661;53.152;5.846;2022-08-05T04:41:47;7.35;;;5.57;;
52786;SDS011;38661;53.152;5.846;2022-08-05T04:44:13;7.03;;;4.95;;
52786;SDS011;38661;53.152;5.846;2022-08-05T04:46:38;5.63;;;5.05;;
52786;SDS011;38661;53.152;5.846;2022-08-05T04:49:07;9.27;;;6.32;;
52786;SDS011;38661;53.152;5.846;2022-08-05T04:51:33;6.97;;;6.10;;
52786;SDS011;38661;53.152;5.846;2022-08-05T04:53:59;7.38;;;5.55;;
52786;SDS011;38661;53.152;5.846;2022-08-05T04:56:24;8.65;;;5.45;;
52786;SDS011;38661;53.152;5.846;2022-08-05T04:58:50;7.75;;;4.45;;
52786;SDS011;38661;53.152;5.846;2022-08-05T05:01:16;5.97;;;5.32;;
52786;SDS011;38661;53.152;5.846;2022-08-05T05:03:42;9.07;;;6.05;;
52786;SDS011;38661;53.152;5.846;2022-08-05T05:06:09;4.45;;;4.00;;
52786;SDS011;38661;53.152;5.846;2022-08-05T05:08:35;8.10;;;5.38;;
52786;SDS011;38661;53.152;5.846;2022-08-05T05:11:01;6.40;;;5.25;;
52786;SDS011;38661;53.152;5.846;2022-08-05T05:13:27;6.15;;;5.25;;
52786;SDS011;38661;53.152;5.846;2022-08-05T05:15:53;5.57;;;4.43;;
52786;SDS011;38661;53.152;5.846;2022-08-05T05:18:19;8.15;;;4.97;;
52786;SDS011;38661;53.152;5.846;2022-08-05T05:20:45;5.20;;;4.38;;
52786;SDS011;38661;53.152;5.846;2022-08-05T05:23:11;5.95;;;4.57;;
52786;SDS011;38661;53.152;5.846;2022-08-05T05:25:39;6.15;;;4.72;;
52786;SDS011;38661;53.152;5.846;2022-08-05T05:28:06;5.53;;;3.92;;
52786;SDS011;38661;53.152;5.846;2022-08-05T05:30:32;6.53;;;5.70;;
52786;SDS011;38661;53.152;5.846;2022-08-05T05:32:59;7.75;;;5.60;;
52786;SDS011;38661;53.152;5.846;2022-08-05T05:35:27;5.93;;;5.32;;
52786;SDS011;38661;53.152;5.846;2022-08-05T05:37:54;8.30;;;6.05;;
52786;SDS011;38661;53.152;5.846;2022-08-05T05:40:23;5.88;;;3.83;;
52786;SDS011;38661;53.152;5.846;2022-08-05T05:42:50;5.60;;;4.05;;
52786;SDS011;38661;53.152;5.846;2022-08-05T05:45:16;5.72;;;4.15;;
52786;SDS011;38661;53.152;5.846;2022-08-05T05:47:42;5.78;;;4.20;;
52786;SDS011;38661;53.152;5.846;2022-08-05T05:50:09;6.97;;;3.67;;
52786;SDS011;38661;53.152;5.846;2022-08-05T05:52:36;4.57;;;3.75;;
52786;SDS011;38661;53.152;5.846;2022-08-05T05:55:03;5.35;;;4.32;;
52786;SDS011;38661;53.152;5.846;2022-08-05T05:57:30;3.53;;;3.05;;
52786;SDS011;38661;53.152;5.846;2022-08-05T05:59:55;6.97;;;3.75;;
52786;SDS011;38661;53.152;5.846;2022-08-05T06:02:21;5.43;;;4.25;;
52786;SDS011;38661;53.152;5.846;2022-08-05T06:04:47;4.53;;;3.00;;
52786;SDS011;38661;53.152;5.846;2022-08-05T06:07:12;3.35;;;2.83;;
52786;SDS011;38661;53.152;5.846;2022-08-05T06:09:38;6.75;;;2.13;;
52786;SDS011;38661;53.152;5.846;2022-08-05T06:12:04;6.65;;;2.85;;
52786;SDS011;38661;53.152;5.846;2022-08-05T06:14:30;3.47;;;2.17;;
52786;SDS011;38661;53.152;5.846;2022-08-05T06:16:56;3.70;;;1.98;;
52786;SDS011;38661;53.152;5.846;2022-08-05T06:19:23;3.58;;;1.50;;
52786;SDS011;38661;53.152;5.846;2022-08-05T06:21:49;4.38;;;1.90;;
52786;SDS011;38661;53.152;5.846;2022-08-05T06:24:15;6.03;;;1.58;;
52786;SDS011;38661;53.152;5.846;2022-08-05T06:26:41;2.60;;;1.08;;
52786;SDS011;38661;53.152;5.846;2022-08-05T06:29:07;3.30;;;1.20;;
52786;SDS011;38661;53.152;5.846;2022-08-05T06:31:33;4.88;;;1.50;;
52786;SDS011;38661;53.152;5.846;2022-08-05T06:33:58;2.60;;;1.42;;
52786;SDS011;38661;53.152;5.846;2022-08-05T06:36:24;3.90;;;1.13;;
52786;SDS011;38661;53.152;5.846;2022-08-05T06:38:50;2.33;;;1.00;;
52786;SDS011;38661;53.152;5.846;2022-08-05T06:41:19;2.38;;;1.17;;
52786;SDS011;38661;53.152;5.846;2022-08-05T06:43:45;2.75;;;1.00;;
52786;SDS011;38661;53.152;5.846;2022-08-05T06:46:11;2.92;;;1.10;;
52786;SDS011;38661;53.152;5.846;2022-08-05T06:48:37;5.80;;;1.30;;
52786;SDS011;38661;53.152;5.846;2022-08-05T06:51:03;4.78;;;1.15;;
52786;SDS011;38661;53.152;5.846;2022-08-05T06:53:29;3.40;;;0.75;;
52786;SDS011;38661;53.152;5.846;2022-08-05T06:55:59;2.97;;;1.00;;
52786;SDS011;38661;53.152;5.846;2022-08-05T06:58:27;5.10;;;1.20;;
52786;SDS011;38661;53.152;5.846;2022-08-05T07:00:53;3.40;;;1.10;;
52786;SDS011;38661;53.152;5.846;2022-08-05T07:03:21;4.75;;;1.17;;
52786;SDS011;38661;53.152;5.846;2022-08-05T07:05:47;4.82;;;1.27;;
52786;SDS011;38661;53.152;5.846;2022-08-05T07:08:13;2.97;;;0.77;;
52786;SDS011;38661;53.152;5.846;2022-08-05T07:10:38;2.70;;;1.30;;
52786;SDS011;38661;53.152;5.846;2022-08-05T07:13:04;3.10;;;1.20;;
52786;SDS011;38661;53.152;5.846;2022-08-05T07:15:48;2.55;;;1.10;;
52786;SDS011;38661;53.152;5.846;2022-08-05T07:18:33;1.80;;;0.70;;
52786;SDS011;38661;53.152;5.846;2022-08-05T07:20:58;3.42;;;0.90;;
52786;SDS011;38661;53.152;5.846;2022-08-05T07:23:24;2.13;;;0.90;;
52786;SDS011;38661;53.152;5.846;2022-08-05T07:25:50;2.25;;;0.90;;
52786;SDS011;38661;53.152;5.846;2022-08-05T07:28:15;2.55;;;0.70;;
52786;SDS011;38661;53.152;5.846;2022-08-05T07:30:41;2.20;;;0.95;;
52786;SDS011;38661;53.152;5.846;2022-08-05T07:33:07;3.88;;;1.20;;
52786;SDS011;38661;53.152;5.846;2022-08-05T07:35:34;3.15;;;1.40;;
52786;SDS011;38661;53.152;5.846;2022-08-05T07:38:00;3.33;;;1.08;;
52786;SDS011;38661;53.152;5.846;2022-08-05T07:40:26;2.22;;;1.00;;
52786;SDS011;38661;53.152;5.846;2022-08-05T07:42:51;2.92;;;0.90;;
52786;SDS011;38661;53.152;5.846;2022-08-05T07:45:17;2.40;;;0.90;;
52786;SDS011;38661;53.152;5.846;2022-08-05T07:47:43;2.65;;;0.93;;
52786;SDS011;38661;53.152;5.846;2022-08-05T07:50:08;3.80;;;0.95;;
52786;SDS011;38661;53.152;5.846;2022-08-05T07:52:38;7.68;;;1.42;;
52786;SDS011;38661;53.152;5.846;2022-08-05T07:55:05;2.95;;;0.90;;
52786;SDS011;38661;53.152;5.846;2022-08-05T07:57:31;2.40;;;1.08;;
52786;SDS011;38661;53.152;5.846;2022-08-05T07:59:57;2.75;;;0.98;;
52786;SDS011;38661;53.152;5.846;2022-08-05T08:02:26;2.45;;;0.70;;
52786;SDS011;38661;53.152;5.846;2022-08-05T08:04:53;3.53;;;1.13;;
52786;SDS011;38661;53.152;5.846;2022-08-05T08:07:19;2.70;;;0.93;;
52786;SDS011;38661;53.152;5.846;2022-08-05T08:09:45;1.77;;;0.75;;
52786;SDS011;38661;53.152;5.846;2022-08-05T08:12:11;3.17;;;0.82;;
52786;SDS011;38661;53.152;5.846;2022-08-05T08:14:38;1.30;;;0.60;;
52786;SDS011;38661;53.152;5.846;2022-08-05T08:17:03;2.67;;;0.60;;
52786;SDS011;38661;53.152;5.846;2022-08-05T08:19:34;2.22;;;0.60;;
52786;SDS011;38661;53.152;5.846;2022-08-05T08:22:00;4.20;;;0.98;;
52786;SDS011;38661;53.152;5.846;2022-08-05T08:24:26;2.38;;;0.80;;
52786;SDS011;38661;53.152;5.846;2022-08-05T08:26:53;4.97;;;1.45;;
52786;SDS011;38661;53.152;5.846;2022-08-05T08:29:18;2.72;;;0.90;;
52786;SDS011;38661;53.152;5.846;2022-08-05T08:31:44;2.17;;;0.60;;
52786;SDS011;38661;53.152;5.846;2022-08-05T08:34:10;1.05;;;0.68;;
52786;SDS011;38661;53.152;5.846;2022-08-05T08:36:37;4.35;;;0.80;;
52786;SDS011;38661;53.152;5.846;2022-08-05T08:39:03;2.75;;;0.70;;
52786;SDS011;38661;53.152;5.846;2022-08-05T08:41:29;2.10;;;0.52;;
52786;SDS011;38661;53.152;5.846;2022-08-05T08:43:57;2.38;;;0.77;;
52786;SDS011;38661;53.152;5.846;2022-08-05T08:46:25;2.83;;;0.55;;
52786;SDS011;38661;53.152;5.846;2022-08-05T08:48:53;2.42;;;0.73;;
52786;SDS011;38661;53.152;5.846;2022-08-05T08:51:19;2.25;;;0.73;;
52786;SDS011;38661;53.152;5.846;2022-08-05T08:53:47;2.20;;;0.45;;
52786;SDS011;38661;53.152;5.846;2022-08-05T08:56:14;1.95;;;0.50;;
52786;SDS011;38661;53.152;5.846;2022-08-05T08:58:41;1.25;;;0.32;;
52786;SDS011;38661;53.152;5.846;2022-08-05T09:01:07;1.83;;;0.80;;
52786;SDS011;38661;53.152;5.846;2022-08-05T09:03:34;3.03;;;0.80;;
52786;SDS011;38661;53.152;5.846;2022-08-05T09:06:00;1.35;;;0.40;;
52786;SDS011;38661;53.152;5.846;2022-08-05T09:08:26;0.98;;;0.38;;
52786;SDS011;38661;53.152;5.846;2022-08-05T09:10:51;1.88;;;0.43;;
52786;SDS011;38661;53.152;5.846;2022-08-05T09:13:17;1.73;;;1.00;;
52786;SDS011;38661;53.152;5.846;2022-08-05T09:15:44;0.68;;;0.50;;
52786;SDS011;38661;53.152;5.846;2022-08-05T09:18:10;1.10;;;0.45;;
52786;SDS011;38661;53.152;5.846;2022-08-05T09:20:36;1.50;;;0.60;;
52786;SDS011;38661;53.152;5.846;2022-08-05T09:23:03;1.80;;;0.40;;
52786;SDS011;38661;53.152;5.846;2022-08-05T09:25:39;0.50;;;0.40;;
52786;SDS011;38661;53.152;5.846;2022-08-05T09:28:16;0.43;;;0.30;;
52786;SDS011;38661;53.152;5.846;2022-08-05T09:36:39;1.58;;;0.63;;
52786;SDS011;38661;53.152;5.846;2022-08-05T09:39:09;0.70;;;0.40;;
52786;SDS011;38661;53.152;5.846;2022-08-05T09:44:38;2.10;;;0.43;;
52786;SDS011;38661;53.152;5.846;2022-08-05T09:47:13;1.58;;;0.60;;
52786;SDS011;38661;53.152;5.846;2022-08-05T09:52:30;3.13;;;0.40;;
52786;SDS011;38661;53.152;5.846;2022-08-05T09:57:32;2.35;;;0.90;;
52786;SDS011;38661;53.152;5.846;2022-08-05T10:00:17;1.13;;;0.50;;
52786;SDS011;38661;53.152;5.846;2022-08-05T10:02:46;2.45;;;1.10;;
52786;SDS011;38661;53.152;5.846;2022-08-05T10:05:14;1.13;;;0.38;;
52786;SDS011;38661;53.152;5.846;2022-08-05T10:10:18;0.85;;;0.40;;
52786;SDS011;38661;53.152;5.846;2022-08-05T10:13:05;2.17;;;0.60;;
52786;SDS011;38661;53.152;5.846;2022-08-05T10:15:35;1.20;;;0.40;;
52786;SDS011;38661;53.152;5.846;2022-08-05T10:25:55;1.05;;;0.45;;
52786;SDS011;38661;53.152;5.846;2022-08-05T10:28:22;0.85;;;0.40;;
52786;SDS011;38661;53.152;5.846;2022-08-05T10:30:49;1.70;;;0.70;;
52786;SDS011;38661;53.152;5.846;2022-08-05T10:33:19;1.25;;;0.63;;
52786;SDS011;38661;53.152;5.846;2022-08-05T10:35:47;2.83;;;0.60;;
52786;SDS011;38661;53.152;5.846;2022-08-05T10:38:15;0.75;;;0.40;;
52786;SDS011;38661;53.152;5.846;2022-08-05T10:41:17;0.60;;;0.50;;
52786;SDS011;38661;53.152;5.846;2022-08-05T10:43:56;1.08;;;0.40;;
52786;SDS011;38661;53.152;5.846;2022-08-05T10:46:41;2.83;;;0.50;;
52786;SDS011;38661;53.152;5.846;2022-08-05T10:49:17;1.60;;;0.65;;
52786;SDS011;38661;53.152;5.846;2022-08-05T10:54:14;1.92;;;0.45;;
52786;SDS011;38661;53.152;5.846;2022-08-05T10:56:45;3.13;;;0.68;;
52786;SDS011;38661;53.152;5.846;2022-08-05T10:59:27;0.60;;;0.40;;
52786;SDS011;38661;53.152;5.846;2022-08-05T11:04:33;2.47;;;0.52;;
52786;SDS011;38661;53.152;5.846;2022-08-05T11:07:10;1.27;;;0.40;;
52786;SDS011;38661;53.152;5.846;2022-08-05T11:09:44;2.28;;;0.40;;
52786;SDS011;38661;53.152;5.846;2022-08-05T11:12:57;0.90;;;0.50;;
52786;SDS011;38661;53.152;5.846;2022-08-05T11:17:39;2.22;;;0.50;;
52786;SDS011;38661;53.152;5.846;2022-08-05T11:20:06;4.00;;;0.60;;
52786;SDS011;38661;53.152;5.846;2022-08-05T11:22:53;1.05;;;0.40;;
52786;SDS011;38661;53.152;5.846;2022-08-05T11:25:29;2.03;;;0.60;;
52786;SDS011;38661;53.152;5.846;2022-08-05T11:35:54;2.50;;;0.77;;
52786;SDS011;38661;53.152;5.846;2022-08-05T11:39:06;0.98;;;0.47;;
52786;SDS011;38661;53.152;5.846;2022-08-05T11:43:42;1.20;;;0.50;;
52786;SDS011;38661;53.152;5.846;2022-08-05T11:46:08;1.27;;;0.30;;
52786;SDS011;38661;53.152;5.846;2022-08-05T11:48:34;0.93;;;0.50;;
52786;SDS011;38661;53.152;5.846;2022-08-05T11:51:05;1.30;;;0.40;;
52786;SDS011;38661;53.152;5.846;2022-08-05T11:53:32;1.60;;;0.40;;
52786;SDS011;38661;53.152;5.846;2022-08-05T11:55:59;0.85;;;0.47;;
52786;SDS011;38661;53.152;5.846;2022-08-05T11:58:31;2.63;;;0.50;;
52786;SDS011;38661;53.152;5.846;2022-08-05T12:01:02;1.23;;;0.60;;
52786;SDS011;38661;53.152;5.846;2022-08-05T12:03:38;1.92;;;0.43;;
52786;SDS011;38661;53.152;5.846;2022-08-05T12:06:07;1.38;;;0.50;;
52786;SDS011;38661;53.152;5.846;2022-08-05T12:11:07;1.40;;;0.40;;
52786;SDS011;38661;53.152;5.846;2022-08-05T12:13:33;3.30;;;0.52;;
52786;SDS011;38661;53.152;5.846;2022-08-05T12:15:59;1.50;;;0.77;;
52786;SDS011;38661;53.152;5.846;2022-08-05T12:18:31;1.52;;;0.70;;
52786;SDS011;38661;53.152;5.846;2022-08-05T12:21:12;1.85;;;0.40;;
52786;SDS011;38661;53.152;5.846;2022-08-05T12:23:39;1.50;;;0.52;;
52786;SDS011;38661;53.152;5.846;2022-08-05T12:26:15;0.85;;;0.40;;
52786;SDS011;38661;53.152;5.846;2022-08-05T12:28:41;4.18;;;0.57;;
52786;SDS011;38661;53.152;5.846;2022-08-05T12:31:06;3.15;;;0.40;;
52786;SDS011;38661;53.152;5.846;2022-08-05T12:33:33;1.23;;;0.43;;
52786;SDS011;38661;53.152;5.846;2022-08-05T12:36:00;2.95;;;0.55;;
52786;SDS011;38661;53.152;5.846;2022-08-05T12:38:27;1.52;;;0.40;;
52786;SDS011;38661;53.152;5.846;2022-08-05T12:40:54;0.82;;;0.30;;
52786;SDS011;38661;53.152;5.846;2022-08-05T12:43:21;1.13;;;0.40;;
52786;SDS011;38661;53.152;5.846;2022-08-05T12:45:54;2.58;;;0.40;;
52786;SDS011;38661;53.152;5.846;2022-08-05T12:48:21;2.80;;;1.15;;
52786;SDS011;38661;53.152;5.846;2022-08-05T12:53:33;3.10;;;0.60;;
52786;SDS011;38661;53.152;5.846;2022-08-05T12:56:20;0.98;;;0.40;;
52786;SDS011;38661;53.152;5.846;2022-08-05T12:59:33;2.45;;;0.47;;
52786;SDS011;38661;53.152;5.846;2022-08-05T13:01:36;9.52;;;1.60;;
52786;SDS011;38661;53.152;5.846;2022-08-05T13:04:02;3.53;;;1.30;;
52786;SDS011;38661;53.152;5.846;2022-08-05T13:06:28;7.35;;;1.85;;
52786;SDS011;38661;53.152;5.846;2022-08-05T13:08:54;5.45;;;1.77;;
52786;SDS011;38661;53.152;5.846;2022-08-05T13:11:27;6.75;;;1.42;;
52786;SDS011;38661;53.152;5.846;2022-08-05T13:13:57;2.72;;;0.88;;
52786;SDS011;38661;53.152;5.846;2022-08-05T13:16:23;7.47;;;1.48;;
52786;SDS011;38661;53.152;5.846;2022-08-05T13:18:52;2.63;;;0.90;;
52786;SDS011;38661;53.152;5.846;2022-08-05T13:21:18;4.22;;;0.70;;
52786;SDS011;38661;53.152;5.846;2022-08-05T13:23:44;2.22;;;0.70;;
52786;SDS011;38661;53.152;5.846;2022-08-05T13:26:10;3.10;;;0.70;;
52786;SDS011;38661;53.152;5.846;2022-08-05T13:28:36;5.60;;;1.65;;
52786;SDS011;38661;53.152;5.846;2022-08-05T13:31:01;6.18;;;1.20;;
52786;SDS011;38661;53.152;5.846;2022-08-05T13:33:27;3.42;;;0.77;;
52786;SDS011;38661;53.152;5.846;2022-08-05T13:35:53;2.85;;;0.60;;
52786;SDS011;38661;53.152;5.846;2022-08-05T13:38:19;5.28;;;1.02;;
52786;SDS011;38661;53.152;5.846;2022-08-05T13:40:45;2.65;;;0.60;;
52786;SDS011;38661;53.152;5.846;2022-08-05T13:43:11;4.18;;;0.77;;
52786;SDS011;38661;53.152;5.846;2022-08-05T13:45:37;1.48;;;0.70;;
52786;SDS011;38661;53.152;5.846;2022-08-05T13:48:03;3.28;;;0.98;;
52786;SDS011;38661;53.152;5.846;2022-08-05T13:50:29;1.95;;;0.40;;
52786;SDS011;38661;53.152;5.846;2022-08-05T13:52:55;2.15;;;0.50;;
52786;SDS011;38661;53.152;5.846;2022-08-05T13:55:20;1.60;;;0.60;;
52786;SDS011;38661;53.152;5.846;2022-08-05T13:57:46;3.63;;;0.75;;
52786;SDS011;38661;53.152;5.846;2022-08-05T14:00:12;2.63;;;0.40;;
52786;SDS011;38661;53.152;5.846;2022-08-05T14:02:38;1.77;;;0.65;;
52786;SDS011;38661;53.152;5.846;2022-08-05T14:05:05;1.45;;;0.63;;
52786;SDS011;38661;53.152;5.846;2022-08-05T14:07:41;3.00;;;0.50;;
52786;SDS011;38661;53.152;5.846;2022-08-05T14:12:39;3.05;;;0.60;;
52786;SDS011;38661;53.152;5.846;2022-08-05T14:15:06;2.70;;;0.50;;
52786;SDS011;38661;53.152;5.846;2022-08-05T14:17:32;1.38;;;0.55;;
52786;SDS011;38661;53.152;5.846;2022-08-05T14:19:57;4.22;;;0.60;;
52786;SDS011;38661;53.152;5.846;2022-08-05T14:22:23;3.33;;;0.85;;
52786;SDS011;38661;53.152;5.846;2022-08-05T14:24:49;1.65;;;0.50;;
52786;SDS011;38661;53.152;5.846;2022-08-05T14:27:15;2.63;;;0.70;;
52786;SDS011;38661;53.152;5.846;2022-08-05T14:29:41;1.25;;;0.88;;
52786;SDS011;38661;53.152;5.846;2022-08-05T14:32:06;1.35;;;0.50;;
52786;SDS011;38661;53.152;5.846;2022-08-05T14:34:32;3.30;;;0.95;;
52786;SDS011;38661;53.152;5.846;2022-08-05T14:36:58;1.73;;;0.60;;
52786;SDS011;38661;53.152;5.846;2022-08-05T14:39:24;1.02;;;0.60;;
52786;SDS011;38661;53.152;5.846;2022-08-05T14:41:50;3.13;;;0.70;;
52786;SDS011;38661;53.152;5.846;2022-08-05T14:44:16;2.58;;;0.73;;
52786;SDS011;38661;53.152;5.846;2022-08-05T14:46:42;2.47;;;0.70;;
52786;SDS011;38661;53.152;5.846;2022-08-05T14:49:08;2.80;;;1.52;;
52786;SDS011;38661;53.152;5.846;2022-08-05T14:51:37;6.55;;;0.90;;
52786;SDS011;38661;53.152;5.846;2022-08-05T14:54:04;1.27;;;0.60;;
52786;SDS011;38661;53.152;5.846;2022-08-05T14:56:31;2.15;;;0.63;;
52786;SDS011;38661;53.152;5.846;2022-08-05T14:58:57;1.45;;;0.70;;
52786;SDS011;38661;53.152;5.846;2022-08-05T15:01:22;0.57;;;0.50;;
52786;SDS011;38661;53.152;5.846;2022-08-05T15:03:48;2.53;;;0.50;;
52786;SDS011;38661;53.152;5.846;2022-08-05T15:06:14;1.23;;;0.40;;
52786;SDS011;38661;53.152;5.846;2022-08-05T15:08:40;1.88;;;0.80;;
52786;SDS011;38661;53.152;5.846;2022-08-05T15:11:06;6.05;;;0.75;;
52786;SDS011;38661;53.152;5.846;2022-08-05T15:13:32;1.90;;;0.93;;
52786;SDS011;38661;53.152;5.846;2022-08-05T15:15:58;0.65;;;0.40;;
52786;SDS011;38661;53.152;5.846;2022-08-05T15:18:24;5.65;;;1.75;;
52786;SDS011;38661;53.152;5.846;2022-08-05T15:20:50;1.25;;;0.57;;
52786;SDS011;38661;53.152;5.846;2022-08-05T15:23:15;2.42;;;0.60;;
52786;SDS011;38661;53.152;5.846;2022-08-05T15:25:41;2.38;;;0.60;;
52786;SDS011;38661;53.152;5.846;2022-08-05T15:28:07;1.17;;;0.63;;
52786;SDS011;38661;53.152;5.846;2022-08-05T15:30:33;2.50;;;0.60;;
52786;SDS011;38661;53.152;5.846;2022-08-05T15:33:01;0.75;;;0.45;;
52786;SDS011;38661;53.152;5.846;2022-08-05T15:35:27;2.85;;;0.60;;
52786;SDS011;38661;53.152;5.846;2022-08-05T15:37:53;3.17;;;0.70;;
52786;SDS011;38661;53.152;5.846;2022-08-05T15:40:19;1.73;;;0.68;;
52786;SDS011;38661;53.152;5.846;2022-08-05T15:42:45;2.30;;;0.80;;
52786;SDS011;38661;53.152;5.846;2022-08-05T15:45:11;1.73;;;0.60;;
52786;SDS011;38661;53.152;5.846;2022-08-05T15:47:37;1.92;;;0.75;;
52786;SDS011;38661;53.152;5.846;2022-08-05T15:50:07;3.28;;;0.73;;
52786;SDS011;38661;53.152;5.846;2022-08-05T15:52:34;2.88;;;1.33;;
52786;SDS011;38661;53.152;5.846;2022-08-05T15:55:02;1.67;;;0.60;;